РПИ Алматы

РПИ Алматы является структурным подразделением дивизиона VATRUS сети VATSIM.

РПИ осуществляет свою деятельность в границах Алматинской и Восточно-Казахстанской областей Республики Казахстан.

Схемы и аэронавигационную информацию можно получить на сайте   Казаэронавигация

Средства связи ОВД:

UAAA_CTR - Алматы Контроль - 131.400

RU-CEN_FSS - Азия Радар  - 132.850 (РПИ: UACN, UAAA, UAII, UATT, UTAA, UCFM, UTAT, UTDD, UTTR,  UCFO,  UTSD, UTAV,  UTAK)

Руководитель РПИ

Dmitriy Bannov

Инструкторы РПИ
Evgeny Vygornitsky (Supervisor)
Vitaliy Alekseyev (Instructor)
Входит в состав
ЗЦ Центральная Азия

Диспетчеры РПИ

Диспетчер Рейтинг Допуски *
Dmitriy Bannov Instructor UAAA_CTR
Alikhan Aidarbek Student UAAA_GND

Аэропорты РПИ

ICAO Город Название Погода
UAAA Алматы Алматы UAAA 020100Z 19002MPS 170V230 9999 SCT100 20/07 Q1008 NOSIG